createdAt,value
2018-12-21T00:01:06.778Z,1.57
2018-12-21T00:03:33.513Z,1.50
2018-12-21T00:06:00.524Z,1.20
2018-12-21T00:08:27.060Z,1.07
2018-12-21T00:10:53.724Z,1.10
2018-12-21T00:13:20.360Z,1.30
2018-12-21T00:15:47.000Z,1.20
2018-12-21T00:18:13.917Z,1.00
2018-12-21T00:20:40.579Z,1.40
2018-12-21T00:23:07.321Z,1.20
2018-12-21T00:25:33.881Z,1.10
2018-12-21T00:28:00.488Z,1.17
2018-12-21T00:30:26.745Z,1.43
2018-12-21T00:32:59.108Z,1.10
2018-12-21T00:35:31.348Z,1.23
2018-12-21T00:38:05.585Z,1.10
2018-12-21T00:40:37.999Z,1.20
2018-12-21T00:46:05.137Z,1.00
2018-12-21T00:48:31.760Z,1.20
2018-12-21T00:50:58.365Z,1.10
2018-12-21T00:53:24.993Z,1.07
2018-12-21T00:55:51.660Z,1.13
2018-12-21T00:58:18.301Z,1.20
2018-12-21T01:00:45.009Z,1.10
2018-12-21T01:03:11.607Z,1.07
2018-12-21T01:05:38.277Z,1.23
2018-12-21T01:08:04.882Z,1.40
2018-12-21T01:10:31.452Z,1.37
2018-12-21T01:12:58.034Z,1.13
2018-12-21T01:15:24.884Z,1.33
2018-12-21T01:17:51.495Z,1.57
2018-12-21T01:20:18.108Z,1.30
2018-12-21T01:22:44.768Z,1.30
2018-12-21T01:25:11.412Z,1.80
2018-12-21T01:27:38.045Z,1.13
2018-12-21T01:30:04.829Z,1.70
2018-12-21T01:32:31.405Z,1.20
2018-12-21T01:34:58.089Z,1.77
2018-12-21T01:37:24.701Z,1.10
2018-12-21T01:39:51.330Z,1.93
2018-12-21T01:42:17.904Z,1.20
2018-12-21T01:44:44.602Z,1.10
2018-12-21T01:47:11.221Z,1.67
2018-12-21T01:49:37.876Z,1.37
2018-12-21T01:52:04.485Z,1.40
2018-12-21T01:54:31.159Z,1.23
2018-12-21T01:56:58.272Z,1.50
2018-12-21T01:59:24.820Z,1.60
2018-12-21T02:01:51.412Z,1.77
2018-12-21T02:04:18.009Z,1.27
2018-12-21T02:06:44.752Z,1.40
2018-12-21T02:09:11.352Z,1.63
2018-12-21T02:11:37.985Z,1.30
2018-12-21T02:14:04.652Z,1.57
2018-12-21T02:16:31.293Z,1.90
2018-12-21T02:18:57.937Z,1.57
2018-12-21T02:21:24.512Z,1.30
2018-12-21T02:23:51.216Z,1.63
2018-12-21T02:26:17.797Z,1.47
2018-12-21T02:28:44.472Z,1.10
2018-12-21T02:31:11.176Z,1.53
2018-12-21T02:33:37.941Z,1.30
2018-12-21T02:36:04.512Z,1.30
2018-12-21T02:38:31.104Z,1.20
2018-12-21T02:40:58.205Z,1.30
2018-12-21T02:43:25.297Z,1.30
2018-12-21T02:45:51.968Z,1.00
2018-12-21T02:48:18.600Z,1.40
2018-12-21T02:50:46.093Z,1.50
2018-12-21T02:53:12.913Z,1.00
2018-12-21T02:55:39.542Z,1.13
2018-12-21T02:58:06.517Z,1.50
2018-12-21T03:00:33.217Z,1.27
2018-12-21T03:02:59.862Z,1.60
2018-12-21T03:05:26.521Z,1.77
2018-12-21T03:07:53.117Z,1.30
2018-12-21T03:10:19.770Z,1.63
2018-12-21T03:12:46.336Z,1.30
2018-12-21T03:15:12.937Z,1.23
2018-12-21T03:17:39.629Z,1.70
2018-12-21T03:20:06.318Z,1.03
2018-12-21T03:22:32.948Z,1.43
2018-12-21T03:24:59.590Z,1.30
2018-12-21T03:27:26.186Z,1.40
2018-12-21T03:29:52.860Z,1.73
2018-12-21T03:32:19.452Z,1.20
2018-12-21T03:34:46.041Z,1.33
2018-12-21T03:37:12.779Z,1.17
2018-12-21T03:39:39.513Z,1.30
2018-12-21T03:42:06.150Z,1.10
2018-12-21T03:44:33.281Z,1.20
2018-12-21T03:47:00.037Z,1.37
2018-12-21T03:49:26.637Z,1.20
2018-12-21T03:51:53.685Z,1.03
2018-12-21T03:54:20.357Z,1.47
2018-12-21T03:56:47.345Z,1.53
2018-12-21T03:59:13.992Z,1.40
2018-12-21T04:01:40.781Z,1.20
2018-12-21T04:04:07.417Z,1.00
2018-12-21T04:06:34.037Z,1.20
2018-12-21T04:09:00.794Z,1.00
2018-12-21T04:11:27.474Z,1.07
2018-12-21T04:13:54.044Z,1.03
2018-12-21T04:16:20.717Z,1.00
2018-12-21T04:18:47.344Z,1.00
2018-12-21T04:21:13.974Z,0.80
2018-12-21T04:23:40.719Z,0.93
2018-12-21T04:26:07.291Z,0.57
2018-12-21T04:28:33.889Z,1.13
2018-12-21T04:31:00.534Z,0.60
2018-12-21T04:33:27.173Z,0.60
2018-12-21T04:35:53.871Z,0.57
2018-12-21T04:38:20.442Z,0.40
2018-12-21T04:40:47.036Z,0.60
2018-12-21T04:43:13.717Z,0.50
2018-12-21T04:45:40.352Z,0.30
2018-12-21T04:48:07.109Z,0.40
2018-12-21T04:50:33.718Z,0.40
2018-12-21T04:53:01.200Z,0.57
2018-12-21T04:55:28.697Z,0.30
2018-12-21T04:57:55.481Z,0.30
2018-12-21T05:00:22.191Z,0.13
2018-12-21T05:02:49.194Z,0.20
2018-12-21T05:05:15.765Z,0.37
2018-12-21T05:07:42.356Z,0.50
2018-12-21T05:10:08.933Z,0.40
2018-12-21T05:12:36.241Z,0.30
2018-12-21T05:15:03.076Z,0.30
2018-12-21T05:17:29.700Z,0.30
2018-12-21T05:19:56.283Z,0.17
2018-12-21T05:22:22.869Z,0.50
2018-12-21T05:24:49.513Z,0.30
2018-12-21T05:27:16.289Z,0.30
2018-12-21T05:29:42.913Z,0.20
2018-12-21T05:32:09.540Z,0.20
2018-12-21T05:34:36.445Z,0.33
2018-12-21T05:37:03.101Z,0.33
2018-12-21T05:39:29.682Z,0.40
2018-12-21T05:41:56.268Z,0.20
2018-12-21T05:44:22.844Z,0.30
2018-12-21T05:46:49.437Z,0.63
2018-12-21T05:49:16.081Z,0.80
2018-12-21T05:51:42.677Z,1.03
2018-12-21T05:54:09.252Z,0.70
2018-12-21T05:56:35.962Z,0.67
2018-12-21T05:59:02.577Z,0.87
2018-12-21T06:01:29.248Z,0.90
2018-12-21T06:03:56.250Z,0.83
2018-12-21T06:06:22.951Z,0.70
2018-12-21T06:08:49.607Z,1.00
2018-12-21T06:11:16.194Z,0.60
2018-12-21T06:13:42.993Z,0.70
2018-12-21T06:16:09.612Z,0.47
2018-12-21T06:18:36.205Z,0.33
2018-12-21T06:21:02.834Z,0.63
2018-12-21T06:23:29.420Z,0.50
2018-12-21T06:25:56.028Z,0.40
2018-12-21T06:28:22.614Z,0.23
2018-12-21T06:30:49.189Z,0.20
2018-12-21T06:33:15.802Z,0.30
2018-12-21T06:35:42.376Z,0.30
2018-12-21T06:38:08.961Z,0.27
2018-12-21T06:40:35.595Z,0.20
2018-12-21T06:43:02.170Z,0.20
2018-12-21T06:45:28.787Z,0.20
2018-12-21T06:47:55.374Z,0.20
2018-12-21T06:50:21.960Z,0.20
2018-12-21T06:52:48.560Z,0.10
2018-12-21T06:55:15.135Z,0.20
2018-12-21T06:57:41.713Z,0.20
2018-12-21T07:00:09.853Z,0.30
2018-12-21T07:02:36.488Z,0.20
2018-12-21T07:05:03.100Z,0.10
2018-12-21T07:07:29.783Z,0.30
2018-12-21T07:09:56.379Z,0.00
2018-12-21T07:12:22.948Z,0.20
2018-12-21T07:14:49.546Z,0.20
2018-12-21T07:17:16.441Z,0.20
2018-12-21T07:19:43.021Z,0.30
2018-12-21T07:22:09.690Z,0.43
2018-12-21T07:24:36.714Z,0.20
2018-12-21T07:27:03.366Z,0.30
2018-12-21T07:29:29.947Z,0.10
2018-12-21T07:31:56.525Z,0.70
2018-12-21T07:34:23.133Z,0.30
2018-12-21T07:36:49.716Z,0.50
2018-12-21T07:39:16.316Z,0.30
2018-12-21T07:41:42.990Z,0.20
2018-12-21T07:44:09.697Z,0.50
2018-12-21T07:46:36.286Z,0.27
2018-12-21T07:49:02.921Z,0.10
2018-12-21T07:51:29.638Z,0.20
2018-12-21T07:53:56.189Z,0.20
2018-12-21T07:56:22.856Z,0.20
2018-12-21T07:58:56.881Z,0.23
2018-12-21T08:01:18.057Z,0.30
2018-12-21T08:03:44.819Z,0.43
2018-12-21T08:06:11.402Z,0.60
2018-12-21T08:08:38.045Z,0.70
2018-12-21T08:11:04.633Z,0.70
2018-12-21T08:13:31.204Z,0.90
2018-12-21T08:15:57.804Z,1.10
2018-12-21T08:18:24.391Z,1.10
2018-12-21T08:20:51.265Z,0.87
2018-12-21T08:23:17.844Z,1.00
2018-12-21T08:25:44.417Z,0.80
2018-12-21T08:28:11.004Z,0.77
2018-12-21T08:30:37.576Z,0.70
2018-12-21T08:33:04.179Z,0.87
2018-12-21T08:35:30.744Z,0.87
2018-12-21T08:37:57.320Z,0.80
2018-12-21T08:40:23.913Z,0.57
2018-12-21T08:42:50.488Z,1.10
2018-12-21T08:45:17.082Z,0.90
2018-12-21T08:47:43.648Z,1.00
2018-12-21T08:50:10.268Z,0.77
2018-12-21T08:52:36.844Z,0.80
2018-12-21T08:55:03.462Z,1.20
2018-12-21T08:57:30.053Z,0.80
2018-12-21T08:59:56.624Z,0.97
2018-12-21T09:02:23.218Z,1.30
2018-12-21T09:04:49.806Z,1.00
2018-12-21T09:07:16.441Z,0.93
2018-12-21T09:09:43.025Z,1.10
2018-12-21T09:12:09.632Z,0.70
2018-12-21T09:14:36.220Z,0.70
2018-12-21T09:17:02.804Z,0.80
2018-12-21T09:19:29.397Z,1.27
2018-12-21T09:21:55.977Z,1.00
2018-12-21T09:24:22.560Z,0.93
2018-12-21T09:26:49.141Z,0.70
2018-12-21T09:29:15.733Z,0.60
2018-12-21T09:31:42.341Z,0.90
2018-12-21T09:34:08.938Z,0.40
2018-12-21T09:36:35.529Z,0.40
2018-12-21T09:39:02.164Z,1.43
2018-12-21T09:41:28.761Z,1.40
2018-12-21T09:43:55.332Z,0.67
2018-12-21T09:46:21.939Z,0.80
2018-12-21T09:48:48.536Z,0.40
2018-12-21T09:51:15.109Z,0.60
2018-12-21T09:53:41.741Z,0.40
2018-12-21T09:56:08.313Z,0.40
2018-12-21T09:58:34.909Z,0.40
2018-12-21T10:01:01.484Z,0.33
2018-12-21T10:03:28.136Z,0.50
2018-12-21T10:05:54.710Z,0.43
2018-12-21T10:08:21.408Z,0.50
2018-12-21T10:10:47.956Z,0.90
2018-12-21T10:13:14.557Z,0.70
2018-12-21T10:15:41.129Z,1.10
2018-12-21T10:18:07.704Z,1.20
2018-12-21T10:20:34.297Z,0.50
2018-12-21T10:23:00.865Z,0.70
2018-12-21T10:25:27.468Z,0.53
2018-12-21T10:27:54.069Z,0.23
2018-12-21T10:30:20.645Z,0.70
2018-12-21T10:32:47.470Z,0.50
2018-12-21T10:35:14.037Z,0.20
2018-12-21T10:37:40.633Z,0.30
2018-12-21T10:40:07.247Z,0.40
2018-12-21T10:42:33.842Z,0.40
2018-12-21T10:45:00.513Z,0.33
2018-12-21T10:47:27.140Z,0.40
2018-12-21T10:49:53.721Z,1.10
2018-12-21T10:52:20.298Z,0.90
2018-12-21T10:54:46.894Z,0.47
2018-12-21T10:57:13.462Z,0.20
2018-12-21T10:59:43.504Z,0.20
2018-12-21T11:02:08.663Z,0.27
2018-12-21T11:04:35.238Z,0.40
2018-12-21T11:07:01.940Z,0.20
2018-12-21T11:09:28.521Z,0.10
2018-12-21T11:11:55.098Z,0.33
2018-12-21T11:14:21.684Z,0.20
2018-12-21T11:16:48.293Z,0.20
2018-12-21T11:19:14.870Z,0.10
2018-12-21T11:21:41.444Z,0.00
2018-12-21T11:24:08.098Z,0.10
2018-12-21T11:26:35.272Z,0.10
2018-12-21T11:29:01.935Z,0.10
2018-12-21T11:31:28.631Z,0.80
2018-12-21T11:33:55.227Z,1.13
2018-12-21T11:36:21.800Z,0.43
2018-12-21T11:38:48.435Z,0.60
2018-12-21T11:41:15.007Z,0.13
2018-12-21T11:43:41.609Z,0.30
2018-12-21T11:46:08.185Z,0.00
2018-12-21T11:48:34.853Z,0.10
2018-12-21T11:51:01.469Z,0.70
2018-12-21T11:53:28.050Z,0.90
2018-12-21T11:55:54.696Z,0.90
2018-12-21T11:58:21.309Z,1.40
2018-12-21T12:00:47.893Z,2.10
2018-12-21T12:03:14.507Z,0.80
2018-12-21T12:05:41.079Z,1.00
2018-12-21T12:08:07.650Z,0.30
2018-12-21T12:10:34.239Z,0.20
2018-12-21T12:13:00.868Z,0.30
2018-12-21T12:15:28.657Z,1.50
2018-12-21T12:17:55.313Z,1.20
2018-12-21T12:20:21.930Z,0.60
2018-12-21T12:22:48.516Z,1.90
2018-12-21T12:25:15.093Z,2.73
2018-12-21T12:27:41.685Z,2.23
2018-12-21T12:30:08.784Z,1.97
2018-12-21T12:32:35.624Z,1.40
2018-12-21T12:35:02.215Z,3.27
2018-12-21T12:37:28.804Z,3.87
2018-12-21T12:39:55.384Z,3.03
2018-12-21T12:42:21.974Z,0.60
2018-12-21T12:44:48.597Z,1.50
2018-12-21T12:47:15.194Z,0.60
2018-12-21T12:49:41.764Z,0.57
2018-12-21T12:52:08.348Z,0.50
2018-12-21T12:54:34.939Z,0.27
2018-12-21T12:57:01.556Z,0.03
2018-12-21T12:59:28.161Z,0.27
2018-12-21T13:01:54.769Z,0.37
2018-12-21T13:04:21.340Z,0.13
2018-12-21T13:06:47.933Z,0.60
2018-12-21T13:09:14.540Z,0.20
2018-12-21T13:11:41.140Z,0.20
2018-12-21T13:14:07.733Z,0.50
2018-12-21T13:16:34.389Z,0.43
2018-12-21T13:19:01.264Z,0.40
2018-12-21T13:21:27.868Z,0.30
2018-12-21T13:23:54.428Z,0.40
2018-12-21T13:26:21.117Z,0.30
2018-12-21T13:28:47.693Z,0.30
2018-12-21T13:31:14.262Z,0.40
2018-12-21T13:33:40.857Z,0.33
2018-12-21T13:36:07.549Z,0.17
2018-12-21T13:38:34.148Z,0.20
2018-12-21T13:41:00.825Z,0.10
2018-12-21T13:43:27.422Z,0.40
2018-12-21T13:45:53.998Z,0.40
2018-12-21T13:48:20.592Z,0.10
2018-12-21T13:50:47.188Z,0.40
2018-12-21T13:53:13.837Z,0.30
2018-12-21T13:55:40.436Z,0.40
2018-12-21T13:58:07.008Z,0.43
2018-12-21T14:00:33.577Z,0.20
2018-12-21T14:03:00.174Z,0.20
2018-12-21T14:05:26.829Z,0.20
2018-12-21T14:07:53.427Z,0.20
2018-12-21T14:13:15.448Z,0.20
2018-12-21T14:15:42.040Z,0.50
2018-12-21T14:18:08.604Z,0.37
2018-12-21T14:20:35.227Z,0.50
2018-12-21T14:23:01.800Z,0.70
2018-12-21T14:25:29.051Z,0.40
2018-12-21T14:27:56.033Z,0.30
2018-12-21T14:30:22.735Z,0.37
2018-12-21T14:32:49.308Z,0.40
2018-12-21T14:35:15.936Z,0.50
2018-12-21T14:37:42.544Z,0.50
2018-12-21T14:40:09.536Z,0.50
2018-12-21T14:42:36.220Z,0.53
2018-12-21T14:45:03.545Z,0.40
2018-12-21T14:47:31.043Z,0.57
2018-12-21T14:49:57.645Z,0.53
2018-12-21T14:52:24.260Z,0.20
2018-12-21T14:54:50.825Z,0.53
2018-12-21T14:57:17.440Z,0.57
2018-12-21T14:59:44.064Z,0.40
2018-12-21T15:02:10.652Z,0.40
2018-12-21T15:04:37.312Z,0.40
2018-12-21T15:07:03.908Z,0.53
2018-12-21T15:09:30.500Z,0.43
2018-12-21T15:11:57.263Z,0.50
2018-12-21T15:14:23.869Z,0.50
2018-12-21T15:16:50.543Z,0.60
2018-12-21T15:19:17.110Z,0.67
2018-12-21T15:21:43.735Z,0.57
2018-12-21T15:24:10.357Z,0.53
2018-12-21T15:26:36.997Z,0.73
2018-12-21T15:29:03.591Z,0.73
2018-12-21T15:31:30.175Z,0.80
2018-12-21T15:33:56.767Z,1.00
2018-12-21T15:36:23.327Z,0.80
2018-12-21T15:38:49.957Z,1.07
2018-12-21T15:41:16.525Z,1.47
2018-12-21T15:43:43.104Z,1.20
2018-12-21T15:46:09.707Z,1.40
2018-12-21T15:48:36.421Z,1.13
2018-12-21T15:51:02.983Z,1.60
2018-12-21T15:53:29.574Z,1.60
2018-12-21T15:55:56.186Z,1.40
2018-12-21T15:58:22.787Z,1.27
2018-12-21T16:00:49.371Z,1.70
2018-12-21T16:03:15.948Z,1.90
2018-12-21T16:05:42.513Z,1.43
2018-12-21T16:08:09.105Z,1.90
2018-12-21T16:10:35.672Z,1.47
2018-12-21T16:13:02.243Z,1.70
2018-12-21T16:15:28.833Z,1.40
2018-12-21T16:17:55.448Z,1.40
2018-12-21T16:20:22.060Z,1.60
2018-12-21T16:22:48.656Z,1.83
2018-12-21T16:25:15.267Z,1.97
2018-12-21T16:27:41.889Z,1.70
2018-12-21T16:30:09.099Z,1.60
2018-12-21T16:32:35.701Z,1.80
2018-12-21T16:35:02.316Z,2.20
2018-12-21T16:37:28.886Z,1.77
2018-12-21T16:39:55.469Z,1.40
2018-12-21T16:42:22.048Z,2.00
2018-12-21T16:44:48.649Z,2.60
2018-12-21T16:47:15.224Z,2.07
2018-12-21T16:49:41.845Z,1.80
2018-12-21T16:52:08.423Z,2.00
2018-12-21T16:54:35.004Z,2.33
2018-12-21T16:57:01.588Z,2.10
2018-12-21T16:59:28.248Z,2.10
2018-12-21T17:01:54.832Z,2.13
2018-12-21T17:04:21.429Z,2.33
2018-12-21T17:06:48.015Z,2.93
2018-12-21T17:09:14.976Z,2.73
2018-12-21T17:11:41.576Z,2.43
2018-12-21T17:14:08.165Z,2.13
2018-12-21T17:16:34.781Z,2.93
2018-12-21T17:19:01.655Z,2.60
2018-12-21T17:21:28.248Z,3.20
2018-12-21T17:23:54.861Z,2.97
2018-12-21T17:26:21.625Z,2.90
2018-12-21T17:28:48.252Z,2.60
2018-12-21T17:31:14.826Z,2.43
2018-12-21T17:33:41.500Z,3.13
2018-12-21T17:36:08.068Z,3.10
2018-12-21T17:38:34.673Z,3.33
2018-12-21T17:41:01.249Z,3.00
2018-12-21T17:43:27.823Z,3.37
2018-12-21T17:45:54.415Z,3.43
2018-12-21T17:48:21.005Z,3.30
2018-12-21T17:50:47.731Z,4.70
2018-12-21T17:53:14.300Z,3.90
2018-12-21T17:55:40.948Z,3.83
2018-12-21T17:58:07.588Z,3.73
2018-12-21T18:00:34.432Z,3.53
2018-12-21T18:03:01.000Z,3.37
2018-12-21T18:05:27.705Z,3.40
2018-12-21T18:07:54.273Z,3.90
2018-12-21T18:10:20.868Z,3.50
2018-12-21T18:12:48.285Z,3.37
2018-12-21T18:15:14.885Z,3.40
2018-12-21T18:17:41.457Z,3.30
2018-12-21T18:20:08.780Z,3.00
2018-12-21T18:22:35.362Z,3.20
2018-12-21T18:25:02.356Z,3.27
2018-12-21T18:27:28.967Z,3.50
2018-12-21T18:29:55.544Z,3.73
2018-12-21T18:32:22.251Z,2.97
2018-12-21T18:34:48.824Z,3.67
2018-12-21T18:37:15.406Z,3.60
2018-12-21T18:39:41.996Z,3.00
2018-12-21T18:42:08.568Z,3.83
2018-12-21T18:44:35.165Z,3.07
2018-12-21T18:47:01.740Z,3.93
2018-12-21T18:49:28.333Z,3.47
2018-12-21T18:51:55.000Z,3.33
2018-12-21T18:54:21.568Z,4.10
2018-12-21T18:56:49.692Z,3.53
2018-12-21T18:59:16.279Z,3.40
2018-12-21T19:01:42.856Z,4.43
2018-12-21T19:04:09.525Z,4.23
2018-12-21T19:06:36.117Z,4.27
2018-12-21T19:09:03.139Z,3.97
2018-12-21T19:11:29.768Z,4.13
2018-12-21T19:13:56.340Z,4.17
2018-12-21T19:16:22.913Z,3.97
2018-12-21T19:18:49.530Z,3.70
2018-12-21T19:21:16.100Z,3.83
2018-12-21T19:23:42.688Z,3.67
2018-12-21T19:26:09.264Z,4.07
2018-12-21T19:28:35.856Z,4.20
2018-12-21T19:31:02.477Z,4.23
2018-12-21T19:33:29.096Z,5.63
2018-12-21T19:35:55.669Z,4.43
2018-12-21T19:38:22.260Z,4.10
2018-12-21T19:40:48.857Z,3.97
2018-12-21T19:43:15.476Z,3.67
2018-12-21T19:45:42.056Z,3.70
2018-12-21T19:48:08.632Z,4.30
2018-12-21T19:50:35.228Z,4.77
2018-12-21T19:53:02.627Z,4.07
2018-12-21T19:55:31.291Z,4.17
2018-12-21T19:57:57.904Z,4.33
2018-12-21T20:00:24.484Z,3.77
2018-12-21T20:02:51.068Z,4.60
2018-12-21T20:05:17.649Z,4.13
2018-12-21T20:07:44.220Z,4.53
2018-12-21T20:10:11.041Z,4.33
2018-12-21T20:12:37.636Z,4.10
2018-12-21T20:15:05.308Z,4.40
2018-12-21T20:17:31.903Z,4.07
2018-12-21T20:19:58.552Z,4.50
2018-12-21T20:22:25.140Z,3.77
2018-12-21T20:24:51.717Z,3.93
2018-12-21T20:27:18.287Z,3.83
2018-12-21T20:29:44.908Z,4.63
2018-12-21T20:32:11.476Z,4.23
2018-12-21T20:34:38.064Z,4.20
2018-12-21T20:37:04.668Z,4.30
2018-12-21T20:39:31.256Z,4.73
2018-12-21T20:41:57.831Z,4.80
2018-12-21T20:44:24.425Z,4.30
2018-12-21T20:46:51.016Z,4.57
2018-12-21T20:49:17.603Z,4.90
2018-12-21T20:51:44.181Z,4.77
2018-12-21T20:54:10.853Z,4.93
2018-12-21T20:56:37.548Z,4.43
2018-12-21T20:59:04.168Z,4.97
2018-12-21T21:01:30.748Z,5.03
2018-12-21T21:03:57.340Z,4.53
2018-12-21T21:06:23.936Z,3.83
2018-12-21T21:08:50.594Z,4.27
2018-12-21T21:11:24.303Z,4.53
2018-12-21T21:13:45.740Z,4.77
2018-12-21T21:16:12.336Z,4.50
2018-12-21T21:18:38.936Z,4.87
2018-12-21T21:21:05.520Z,4.43
2018-12-21T21:23:32.104Z,4.23
2018-12-21T21:25:58.674Z,5.27
2018-12-21T21:28:25.268Z,4.03
2018-12-21T21:30:51.941Z,5.03
2018-12-21T21:33:18.502Z,4.90
2018-12-21T21:35:45.085Z,4.40
2018-12-21T21:38:11.663Z,4.97
2018-12-21T21:40:38.284Z,4.67
2018-12-21T21:43:04.988Z,4.90
2018-12-21T21:45:31.655Z,4.50
2018-12-21T21:47:58.249Z,4.90
2018-12-21T21:50:24.836Z,4.40
2018-12-21T21:52:51.428Z,5.43
2018-12-21T21:55:18.005Z,6.10
2018-12-21T21:57:44.593Z,4.83
2018-12-21T22:00:11.353Z,4.13
2018-12-21T22:02:37.976Z,4.53
2018-12-21T22:05:04.643Z,4.43
2018-12-21T22:07:31.239Z,5.17
2018-12-21T22:09:57.907Z,4.03
2018-12-21T22:12:24.485Z,4.30
2018-12-21T22:14:51.075Z,4.47
2018-12-21T22:17:17.750Z,5.37
2018-12-21T22:19:44.340Z,4.23
2018-12-21T22:22:10.940Z,4.20
2018-12-21T22:24:37.532Z,4.73
2018-12-21T22:27:05.100Z,5.20
2018-12-21T22:29:31.899Z,4.80
2018-12-21T22:31:58.480Z,4.63
2018-12-21T22:34:25.070Z,4.50
2018-12-21T22:36:51.639Z,4.17
2018-12-21T22:39:18.240Z,4.60
2018-12-21T22:41:44.820Z,4.17
2018-12-21T22:44:11.410Z,4.30
2018-12-21T22:46:37.998Z,4.67
2018-12-21T22:49:04.616Z,4.33
2018-12-21T22:51:31.185Z,4.63
2018-12-21T22:53:57.778Z,4.40
2018-12-21T22:56:24.345Z,4.20
2018-12-21T22:58:50.918Z,4.63
2018-12-21T23:01:17.545Z,4.33
2018-12-21T23:03:44.120Z,4.50
2018-12-21T23:06:10.710Z,5.30
2018-12-21T23:08:37.288Z,4.13
2018-12-21T23:11:03.883Z,4.17
2018-12-21T23:13:30.508Z,5.50
2018-12-21T23:15:57.155Z,5.87
2018-12-21T23:18:23.752Z,4.90
2018-12-21T23:20:50.347Z,4.63
2018-12-21T23:23:17.044Z,4.33
2018-12-21T23:25:43.696Z,4.20
2018-12-21T23:28:11.163Z,5.30
2018-12-21T23:30:37.760Z,3.83
2018-12-21T23:33:05.960Z,4.63
2018-12-21T23:35:32.908Z,3.83
2018-12-21T23:37:59.544Z,3.87
2018-12-21T23:40:26.184Z,4.47
2018-12-21T23:42:52.820Z,4.07
2018-12-21T23:45:19.456Z,4.57
2018-12-21T23:47:46.088Z,4.20
2018-12-21T23:50:12.689Z,4.47
2018-12-21T23:52:39.372Z,4.97
2018-12-21T23:55:05.997Z,4.20
2018-12-21T23:57:32.644Z,4.67
2018-12-21T23:59:59.740Z,4.83
